Wallace, SC (29596)

3:54 PM EDT on July 23, 2014 (GMT -0400)
KSCCHERA3 Elev 110 ft | 34.70 °N, 79.90 °W | Change Station

Current weather conditions updated 4 minutes ago

Mostly Cloudy
Mostly Cloudy
90.2 °F
Feels Like 105 °F
N
1.0
Wind Variable Wind from SSE
Gusts 1.0 mph

Today is forecast to be nearly the same temperature as yesterday. Afternoon thunderstorms.

Today
High -- | Low -- °F
--% Chance of Precip.
Yesterday
High -- | Low -- °F
Precip. -- in
6:22 AM 8:28 PM
Waning Crescent, 9% visible
Pressure 30.00 in
Visibility 10.0 miles
Clouds Clear
Heat Index 105 °F
Dew Point 78 °F
Humidity 68%
Rainfall 0.03 in
Snow Depth Not available.
UV 9 out of 12
Pollen 2.80 out of 12
Ozone Good
PM2.5 Good
Flu Activity Not available.
METAR KCQW 231935Z AUTO 17006KT 10SM CLR 30/22 A3000 RMK AO2

More Conditions Fewer Conditions

Pressure 30.00 in
Visibility 10.0 miles
Clouds Clear
Heat Index 105 °F
Dew Point 78 °F
Humidity 68%
Rainfall 0.03 in
Snow Depth Not available.
UV 9 out of 12
Pollen 2.80 out of 12
Ozone Good
PM2.5 Good
Flu Activity Not available.
METAR KCQW 231935Z AUTO 17006KT 10SM CLR 30/22 A3000 RMK AO2

More Conditions Fewer Conditions

10-Day Weather Forecast

Almanac

Astronomy

Jul. 23, 2014 Rise Set
Actual Time 6:22 AM EDT 8:28 PM EDT
Civil Twilight 5:54 AM EDT 8:56 PM EDT
Nautical Twilight 5:20 AM EDT 9:31 PM EDT
Astronomical Twilight 4:42 AM EDT 10:08 PM EDT
Moon 3:39 AM EDT 5:56 PM EDT
Length of Visible Light 15h 02m
Length of Day
14h 05m
Tomorrow will be 1m 23s shorter.
Waning Crescent, 9% of the Moon is Illuminated
Today
Waning Crescent
Jul 26
New
Aug 3
First Quarter
Aug 10
Full
Aug 17
Last Quarter

Today's Extremes

State Highs State Lows

Community

WunderPhotos

Upload Photos

1,736,734 photos uploaded!

Nearby

Air Quality

  Air Quality AQ Index Pollutant
Yesterday Good
PM2.5
Yesterday Good
OZONE
Current Good
PM2.5
Current Good
OZONE
Wednesday Good
OZONE
Thursday Good
OZONE

Snow Depth

Station Depth Elevation
No new snow has been reported.

Earthquake Activity

City Distance Mag. Time & Date
No recent earthquake activity has been reported nearby.
Minimum magnitude displayed is 2.5.

Coastal Water Temperatures

Place Temperature
No Stations Reporting

Nearby Weather Stations

Station Location Temp. Heat Index Dew Point Humidity Wind Precip. Elev Updated Type
Cheraw, SC 90.2 °F 105 °F 78 °F 68% SSE  at  1.0 mph 0.00 in / hr 110 ft 3:50 PM EDT Normal
Hunts Mill, Chesterfield, SC 96.4 °F 115 °F 79 °F 57% SSE  at  1.7 mph - / hr 164 ft 3:44 PM EDT Normal
Cottingham Creek, Bennettsville, SC 83.0 °F 90 °F 75 °F 76% South  at  0.0 mph 0.00 in / hr 143 ft 3:53 PM EDT Rapid Fire
Deer Run, Hamlet, NC 89.2 °F 99 °F 75 °F 63% WSW  at  0.0 mph 0.00 in / hr 400 ft 3:46 PM EDT Normal
RAWS ROCKINGHAM NC, Rockingham, NC 92 °F 100 °F 72 °F 53% SW  at  6 mph 0.00 in / hr 399 ft 2:45 PM EDT MADIS

Show More Stations Show Fewer Stations